Time;durP1;ratioP1;P1;durP2;ratioP2;P2;SDS_P1;SDS_P2;PMS_P1;PMS_P2;Temp;Humidity;BMP_temperature;BMP_pressure;BME280_temperature;BME280_humidity;BME280_pressure;Samples;Min_cycle;Max_cycle;Signal;HPM_P1;HPM_P2
2023/07/07 00:00:42;;;;;;;;;;;;;;;23.19;50.53;100266.88;5055697;28;1285;-39
2023/07/07 00:03:07;;;;;;;;;;;;;;;21.29;53.41;100274.81;5056851;28;1186;-38
2023/07/07 00:05:34;;;;;;;;;;;;;;;21.64;56.32;100279.41;5056357;28;1906;-37
2023/07/07 00:07:59;;;;;;;;;;;;;;;23.70;49.76;100281.94;5056353;28;1035;-38
2023/07/07 00:10:25;;;;;;;;;;;;;;;21.02;54.28;100281.13;5056129;28;1094;-39
2023/07/07 00:12:51;;;;;;;;;;;;;;;22.63;52.93;100286.28;5056151;28;1042;-36
2023/07/07 00:15:17;;;;;;;;;;;;;;;21.87;51.38;100285.09;5056683;28;1151;-37
2023/07/07 00:17:42;;;;;;;;;;;;;;;20.92;57.11;100297.19;5056357;28;1130;-37
2023/07/07 00:20:11;;;;;;;;;;;;;;;23.09;51.08;100284.97;5056737;28;1165;-38
2023/07/07 00:22:37;;;;;;;;;;;;;;;21.31;54.00;100288.03;5056548;28;1042;-36
2023/07/07 00:25:03;;;;;;;;;;;;;;;20.85;59.29;100283.63;5057093;28;1098;-38
2023/07/07 00:27:28;;;;;;;;;;;;;;;23.33;50.42;100275.25;5056029;28;1906;-37
2023/07/07 00:29:54;;;;;;;;;;;;;;;21.11;54.27;100285.53;5056367;28;1196;-38
2023/07/07 00:32:19;;;;;;;;;;;;;;;21.60;56.69;100284.25;5056502;28;1032;-38
2023/07/07 00:34:45;;;;;;;;;;;;;;;23.59;48.91;100279.59;5057093;28;1108;-38
2023/07/07 00:37:10;;;;;;;;;;;;;;;21.07;53.91;100278.81;5063062;28;1073;-39
2023/07/07 00:39:36;;;;;;;;;;;;;;;22.70;52.50;100284.63;5062443;28;1075;-38
2023/07/07 00:42:02;;;;;;;;;;;;;;;21.86;51.48;100275.41;5062860;28;1083;-39
2023/07/07 00:44:28;;;;;;;;;;;;;;;20.83;57.60;100288.28;5062842;28;1047;-38
2023/07/07 00:46:54;;;;;;;;;;;;;;;23.09;51.08;100296.56;5060740;28;1910;-31
2023/07/07 00:49:20;;;;;;;;;;;;;;;21.26;53.46;100291.19;5062829;28;1071;-38
2023/07/07 00:51:45;;;;;;;;;;;;;;;21.24;57.47;100287.81;5078555;28;1218;-40
2023/07/07 00:54:13;;;;;;;;;;;;;;;23.53;50.22;100294.56;5062531;28;1118;-39
2023/07/07 00:56:39;;;;;;;;;;;;;;;20.77;54.32;100287.03;5078231;28;1201;-38
2023/07/07 00:59:12;;;;;;;;;;;;;;;22.49;52.87;100287.69;5061024;28;1051;-38
2023/07/07 01:01:38;;;;;;;;;;;;;;;22.16;50.21;100285.75;5061283;28;1075;-37
2023/07/07 01:04:05;;;;;;;;;;;;;;;20.99;55.59;100292.09;5062547;28;1197;-38
2023/07/07 01:06:32;;;;;;;;;;;;;;;23.19;50.46;100298.25;5077942;28;1969;-39
2023/07/07 01:08:58;;;;;;;;;;;;;;;21.48;52.69;100304.22;5078585;28;1208;-39
2023/07/07 01:11:24;;;;;;;;;;;;;;;20.87;58.70;100303.00;5062413;28;1099;-38
2023/07/07 01:13:49;;;;;;;;;;;;;;;23.33;49.97;100294.88;5062769;28;1039;-37
2023/07/07 01:16:17;;;;;;;;;;;;;;;21.51;52.79;100285.19;5062411;28;1214;-37
2023/07/07 01:18:52;;;;;;;;;;;;;;;21.29;57.20;100285.53;5078487;28;1218;-39
2023/07/07 01:21:21;;;;;;;;;;;;;;;23.58;49.17;100291.34;5062483;28;1135;-38
2023/07/07 01:23:56;;;;;;;;;;;;;;;22.11;50.99;100277.34;5062589;28;833;-38
2023/07/07 01:26:22;;;;;;;;;;;;;;;20.78;56.58;100280.72;5060922;28;1906;-38
2023/07/07 01:28:48;;;;;;;;;;;;;;;23.14;50.99;100276.44;5062876;28;1137;-39
2023/07/07 01:31:18;;;;;;;;;;;;;;;22.38;50.04;100281.66;5062282;28;1108;-39
2023/07/07 01:33:44;;;;;;;;;;;;;;;20.83;57.88;100285.59;5062303;28;1074;-37
2023/07/07 01:36:09;;;;;;;;;;;;;;;23.42;50.26;100284.19;5077589;28;1207;-39
2023/07/07 01:38:45;;;;;;;;;;;;;;;22.41;50.00;100279.63;5062622;28;1126;-39
2023/07/07 01:41:30;;;;;;;;;;;;;;;20.92;57.48;100287.38;5062609;28;1135;-38
2023/07/07 01:44:03;;;;;;;;;;;;;;;23.54;49.58;100281.97;5062601;28;1056;-37
2023/07/07 01:46:29;;;;;;;;;;;;;;;21.21;53.59;100279.25;5060598;28;1906;-39
2023/07/07 01:48:57;;;;;;;;;;;;;;;22.00;54.52;100283.84;5059029;28;1130;-37
2023/07/07 01:51:25;;;;;;;;;;;;;;;23.68;50.22;100280.44;5059168;28;1016;-36
2023/07/07 01:53:51;;;;;;;;;;;;;;;21.87;52.10;100281.59;5074684;28;1222;-38
2023/07/07 01:56:18;;;;;;;;;;;;;;;20.97;58.78;100289.59;5059340;28;1126;-38
2023/07/07 01:58:43;;;;;;;;;;;;;;;23.50;50.00;100288.69;5057416;28;2149;-38
2023/07/07 02:01:09;;;;;;;;;;;;;;;21.39;53.24;100289.94;5054157;28;996;-38
2023/07/07 02:03:35;;;;;;;;;;;;;;;21.67;56.30;100291.66;5073680;28;1154;-38
2023/07/07 02:06:01;;;;;;;;;;;;;;;23.82;49.10;100289.66;5058460;28;1898;-38
2023/07/07 02:08:26;;;;;;;;;;;;;;;22.22;51.27;100287.78;5059142;28;1183;-37
2023/07/07 02:10:52;;;;;;;;;;;;;;;20.97;56.87;100289.59;5058605;28;1137;-38
2023/07/07 02:13:18;;;;;;;;;;;;;;;23.35;50.80;100292.03;5058524;28;1163;-38
2023/07/07 02:15:43;;;;;;;;;;;;;;;21.67;52.56;100284.44;5058293;28;1117;-39
2023/07/07 02:18:09;;;;;;;;;;;;;;;21.99;55.34;100282.97;5057259;28;1055;-36
2023/07/07 02:20:34;;;;;;;;;;;;;;;23.56;47.66;100274.56;5058928;28;1122;-38
2023/07/07 02:23:00;;;;;;;;;;;;;;;21.02;54.46;100275.78;5056750;28;1099;-35
2023/07/07 02:25:26;;;;;;;;;;;;;;;22.58;53.27;100277.84;5058676;28;1906;-38
2023/07/07 02:27:52;;;;;;;;;;;;;;;22.14;51.45;100287.72;5057263;28;1124;-38
2023/07/07 02:30:17;;;;;;;;;;;;;;;21.09;58.75;100287.53;5073968;28;1161;-38
2023/07/07 02:32:43;;;;;;;;;;;;;;;23.56;50.34;100299.59;5056893;28;1106;-38
2023/07/07 02:35:09;;;;;;;;;;;;;;;21.94;52.28;100295.19;5058274;28;1004;-38
2023/07/07 02:37:34;;;;;;;;;;;;;;;21.01;59.40;100303.50;5065939;28;1111;-38
2023/07/07 02:40:00;;;;;;;;;;;;;;;23.55;50.59;100297.06;5058547;28;1107;-38
2023/07/07 02:42:25;;;;;;;;;;;;;;;21.32;53.97;100292.38;5057370;28;1099;-37
2023/07/07 02:44:51;;;;;;;;;;;;;;;21.34;57.79;100293.09;5058828;28;1059;-38
2023/07/07 02:47:17;;;;;;;;;;;;;;;23.79;49.87;100296.19;5057862;28;1910;-39
2023/07/07 02:49:42;;;;;;;;;;;;;;;22.45;50.53;100287.19;5090896;28;1424;-38
2023/07/07 02:52:08;;;;;;;;;;;;;;;20.86;55.36;100287.97;5056638;28;1234;-36
2023/07/07 02:54:34;;;;;;;;;;;;;;;22.79;53.11;100288.13;5073618;28;1145;-38
2023/07/07 02:57:00;;;;;;;;;;;;;;;22.07;52.18;100300.94;5073195;28;1157;-38
2023/07/07 02:59:26;;;;;;;;;;;;;;;21.07;59.39;100299.38;5056935;28;1151;-38
2023/07/07 03:01:51;;;;;;;;;;;;;;;23.71;50.62;100282.78;5090013;28;1323;-39
2023/07/07 03:04:17;;;;;;;;;;;;;;;21.69;53.66;100301.19;5073331;28;1047;-38
2023/07/07 03:06:42;;;;;;;;;;;;;;;21.59;58.10;100300.44;5072728;28;1914;-37
2023/07/07 03:09:08;;;;;;;;;;;;;;;23.88;50.85;100297.00;5072848;28;1293;-40
2023/07/07 03:11:36;;;;;;;;;;;;;;;21.18;54.83;100288.44;5055942;28;1129;-37
2023/07/07 03:14:02;;;;;;;;;;;;;;;22.89;53.42;100292.53;5089741;28;1155;-37
2023/07/07 03:16:31;;;;;;;;;;;;;;;22.39;51.46;100293.19;5056258;28;1250;-38
2023/07/07 03:19:02;;;;;;;;;;;;;;;23.63;50.24;100298.91;5073274;28;1398;-39
2023/07/07 03:21:31;;;;;;;;;;;;;;;25.02;46.75;100292.31;5039663;28;2116;-38
2023/07/07 03:24:07;;;;;;;;;;;;;;;25.64;45.57;100294.97;5072361;28;1350;-37
2023/07/07 03:26:33;;;;;;;;;;;;;;;25.70;45.19;100296.09;5077103;28;1984;-37
2023/07/07 03:29:02;;;;;;;;;;;;;;;25.95;44.70;100301.22;5072650;28;1318;-37
2023/07/07 03:31:28;;;;;;;;;;;;;;;25.86;45.13;100303.16;5072351;28;1163;-37
2023/07/07 03:33:58;;;;;;;;;;;;;;;26.07;44.56;100300.75;5057207;28;1131;-37
2023/07/07 03:36:25;;;;;;;;;;;;;;;26.24;44.20;100298.69;5072430;28;1131;-38
2023/07/07 03:38:52;;;;;;;;;;;;;;;26.47;43.68;100300.44;5055360;28;1232;-37
2023/07/07 03:41:19;;;;;;;;;;;;;;;26.64;42.77;100309.16;5072571;28;1091;-37
2023/07/07 03:43:47;;;;;;;;;;;;;;;26.82;42.38;100305.16;5072563;28;1190;-36
2023/07/07 03:46:17;;;;;;;;;;;;;;;26.77;42.53;100301.19;5072386;28;1918;-37
2023/07/07 03:48:43;;;;;;;;;;;;;;;26.89;42.31;100292.59;5055225;28;1250;-38
2023/07/07 03:51:09;;;;;;;;;;;;;;;26.97;41.93;100307.81;5056994;28;1063;-35
2023/07/07 03:53:35;;;;;;;;;;;;;;;27.16;42.46;100317.13;5055294;28;1079;-33
2023/07/07 03:56:01;;;;;;;;;;;;;;;27.26;40.56;100312.25;5055018;28;1278;-34
2023/07/07 03:58:27;;;;;;;;;;;;;;;27.34;42.56;100313.97;5072152;28;1292;-35
2023/07/07 04:00:53;;;;;;;;;;;;;;;27.41;43.12;100314.03;5055391;28;1479;-33
2023/07/07 04:03:19;;;;;;;;;;;;;;;27.25;42.36;100316.00;5055098;28;1218;-38
2023/07/07 04:05:45;;;;;;;;;;;;;;;26.61;44.83;100318.44;5072091;28;1910;-36
2023/07/07 04:08:10;;;;;;;;;;;;;;;27.33;42.48;100311.47;5055521;28;1266;-32
2023/07/07 04:10:36;;;;;;;;;;;;;;;27.64;42.14;100315.66;5055404;28;988;-36
2023/07/07 04:13:01;;;;;;;;;;;;;;;27.46;43.52;100314.28;5056553;28;1110;-33
2023/07/07 04:15:27;;;;;;;;;;;;;;;27.60;43.18;100323.31;5056704;28;1082;-36
2023/07/07 04:17:52;;;;;;;;;;;;;;;27.58;43.46;100319.97;5036904;28;1111;-34
2023/07/07 04:20:18;;;;;;;;;;;;;;;27.60;43.18;100319.78;5091720;28;987;-35
2023/07/07 04:22:44;;;;;;;;;;;;;;;27.47;43.42;100321.38;5054372;28;1231;-37
2023/07/07 04:25:13;;;;;;;;;;;;;;;27.33;44.00;100322.25;5088545;28;860;-35
2023/07/07 04:27:39;;;;;;;;;;;;;;;27.50;42.85;100333.63;5050098;28;1902;-37
2023/07/07 04:30:05;;;;;;;;;;;;;;;27.69;41.58;100325.91;5050012;28;1330;-38
2023/07/07 04:32:30;;;;;;;;;;;;;;;27.71;41.07;100326.56;5055758;28;1242;-38
2023/07/07 04:34:56;;;;;;;;;;;;;;;27.65;39.74;100316.47;5053640;28;1452;-27
2023/07/07 04:37:21;;;;;;;;;;;;;;;27.93;40.23;100315.63;5054843;28;1182;-34
2023/07/07 04:39:50;;;;;;;;;;;;;;;27.70;40.74;100324.88;5055560;28;1051;-29
2023/07/07 04:42:15;;;;;;;;;;;;;;;27.67;41.18;100323.38;5055482;28;1151;-30
2023/07/07 04:44:41;;;;;;;;;;;;;;;27.75;40.50;100317.00;5055423;28;1089;-33
2023/07/07 04:47:06;;;;;;;;;;;;;;;27.86;39.60;100326.44;5055807;28;2226;-30
2023/07/07 04:49:32;;;;;;;;;;;;;;;27.72;39.40;100328.22;5055695;28;1147;-29
2023/07/07 04:51:57;;;;;;;;;;;;;;;27.74;39.34;100332.38;5055202;28;1047;-32
2023/07/07 04:54:23;;;;;;;;;;;;;;;27.93;39.43;100338.13;5051766;28;1384;-28
2023/07/07 04:56:49;;;;;;;;;;;;;;;27.80;40.22;100332.63;5054279;28;1976;-27
2023/07/07 04:59:16;;;;;;;;;;;;;;;27.63;41.14;100332.88;5050505;28;1360;-26
2023/07/07 05:01:42;;;;;;;;;;;;;;;27.67;41.11;100334.19;5052793;28;1209;-29
2023/07/07 05:04:07;;;;;;;;;;;;;;;27.66;41.16;100337.09;5046414;28;1458;-29
2023/07/07 05:06:34;;;;;;;;;;;;;;;27.61;41.20;100346.59;5035303;28;1926;-30
2023/07/07 05:09:01;;;;;;;;;;;;;;;27.82;40.15;100342.22;5045121;28;1392;-29
2023/07/07 05:11:26;;;;;;;;;;;;;;;27.79;39.98;100337.22;5040352;28;1293;-29
2023/07/07 05:13:52;;;;;;;;;;;;;;;27.86;39.47;100334.56;5055029;28;1060;-26
2023/07/07 05:16:19;;;;;;;;;;;;;;;28.10;38.05;100337.78;5055232;28;1293;-40
2023/07/07 05:18:44;;;;;;;;;;;;;;;27.91;38.86;100342.06;5056326;28;1167;-41
2023/07/07 05:21:10;;;;;;;;;;;;;;;27.81;38.74;100355.94;5057189;28;1368;-40
2023/07/07 05:23:36;;;;;;;;;;;;;;;28.33;37.92;100355.59;5059769;28;1480;-35
2023/07/07 05:26:02;;;;;;;;;;;;;;;28.27;38.37;100357.22;5059268;28;1897;-40
2023/07/07 05:28:27;;;;;;;;;;;;;;;28.27;37.59;100359.94;5059806;28;1147;-40
2023/07/07 05:30:53;;;;;;;;;;;;;;;28.35;37.38;100361.66;5046530;28;960;-40
2023/07/07 05:33:19;;;;;;;;;;;;;;;28.39;38.25;100372.91;5055299;28;1408;-39
2023/07/07 05:35:51;;;;;;;;;;;;;;;28.19;37.74;100365.50;5059425;28;1028;-42
2023/07/07 05:38:17;;;;;;;;;;;;;;;28.34;38.10;100368.13;5053134;28;1097;-39
2023/07/07 05:40:43;;;;;;;;;;;;;;;27.99;38.03;100371.63;5059226;28;1112;-38
2023/07/07 05:43:09;;;;;;;;;;;;;;;27.85;37.77;100370.69;5058299;28;1150;-38
2023/07/07 05:45:34;;;;;;;;;;;;;;;27.92;38.20;100378.84;5059179;28;1906;-37
2023/07/07 05:48:00;;;;;;;;;;;;;;;27.94;36.76;100377.66;5058006;28;1119;-39
2023/07/07 05:50:26;;;;;;;;;;;;;;;28.05;36.85;100370.00;5058562;28;866;-38
2023/07/07 05:52:51;;;;;;;;;;;;;;;28.10;36.84;100370.25;5058329;28;1167;-37
2023/07/07 05:55:22;;;;;;;;;;;;;;;28.14;36.53;100366.13;5058388;28;1190;-39
2023/07/07 05:57:48;;;;;;;;;;;;;;;28.17;36.33;100363.00;5057385;28;1055;-39
2023/07/07 06:00:13;;;;;;;;;;;;;;;28.41;36.07;100376.25;5058544;28;1090;-41
2023/07/07 06:02:39;;;;;;;;;;;;;;;28.57;35.65;100367.81;5057903;28;969;-41
2023/07/07 06:05:05;;;;;;;;;;;;;;;28.53;35.82;100361.09;5058134;28;1101;-39
2023/07/07 06:07:31;;;;;;;;;;;;;;;28.59;35.57;100364.88;5058319;28;1914;-22
2023/07/07 06:09:57;;;;;;;;;;;;;;;28.53;36.01;100358.41;5058587;28;1210;-41
2023/07/07 06:12:23;;;;;;;;;;;;;;;28.56;35.58;100351.78;5058328;28;1123;-34
2023/07/07 06:14:49;;;;;;;;;;;;;;;28.52;35.41;100366.72;5058508;28;976;-39
2023/07/07 06:17:14;;;;;;;;;;;;;;;28.54;36.13;100365.50;5058917;28;1054;-39
2023/07/07 06:19:40;;;;;;;;;;;;;;;28.54;35.69;100367.38;5058203;28;1143;-37
2023/07/07 06:22:05;;;;;;;;;;;;;;;28.64;34.95;100359.72;5045651;28;1011;-36
2023/07/07 06:24:31;;;;;;;;;;;;;;;28.64;35.39;100357.00;5058017;28;1171;-38
2023/07/07 06:26:56;;;;;;;;;;;;;;;28.67;34.33;100363.88;5057589;28;1918;-37
2023/07/07 06:29:22;;;;;;;;;;;;;;;28.54;35.33;100370.91;5057809;28;1119;-39
2023/07/07 06:31:48;;;;;;;;;;;;;;;28.53;35.13;100360.28;5057213;28;1014;-37
2023/07/07 06:34:13;;;;;;;;;;;;;;;28.45;35.80;100369.41;5057078;28;1099;-38
2023/07/07 06:36:40;;;;;;;;;;;;;;;28.58;35.17;100368.63;5057762;28;1551;-37
2023/07/07 06:39:05;;;;;;;;;;;;;;;28.61;35.31;100370.94;5057776;28;848;-44
2023/07/07 06:41:31;;;;;;;;;;;;;;;28.51;36.11;100362.38;5057687;28;1098;-43
2023/07/07 06:43:57;;;;;;;;;;;;;;;28.58;35.52;100350.50;5057977;28;1121;-44
2023/07/07 06:46:24;;;;;;;;;;;;;;;28.51;35.94;100365.06;5057136;28;1906;-44
2023/07/07 06:48:49;;;;;;;;;;;;;;;28.63;36.03;100355.31;5057670;28;1203;-44
2023/07/07 06:51:15;;;;;;;;;;;;;;;28.60;36.66;100355.72;5056725;28;1023;-43
2023/07/07 06:53:40;;;;;;;;;;;;;;;28.60;36.78;100351.16;5054901;28;1339;-43
2023/07/07 06:56:06;;;;;;;;;;;;;;;28.67;36.69;100347.63;5057634;28;1110;-43
2023/07/07 06:58:33;;;;;;;;;;;;;;;28.67;36.37;100347.63;5057393;28;1008;-44
2023/07/07 07:00:59;;;;;;;;;;;;;;;28.64;36.78;100362.41;5057470;28;1042;-44
2023/07/07 07:03:24;;;;;;;;;;;;;;;28.64;37.18;100350.75;5057098;28;918;-45
2023/07/07 07:05:50;;;;;;;;;;;;;;;28.51;37.29;100368.59;5056687;28;1988;-43
2023/07/07 07:08:15;;;;;;;;;;;;;;;28.70;38.22;100348.06;5072642;28;1048;-41
2023/07/07 07:10:41;;;;;;;;;;;;;;;28.43;37.89;100361.50;5057271;28;1086;-39
2023/07/07 07:13:08;;;;;;;;;;;;;;;28.40;37.15;100351.06;5056894;28;1070;-39
2023/07/07 07:15:33;;;;;;;;;;;;;;;28.55;37.71;100350.94;5056839;28;892;-39
2023/07/07 07:17:59;;;;;;;;;;;;;;;28.44;38.57;100355.06;5056542;28;1023;-42
2023/07/07 07:20:25;;;;;;;;;;;;;;;28.61;37.39;100352.00;5056954;28;1396;-38
2023/07/07 07:22:50;;;;;;;;;;;;;;;28.37;38.43;100359.59;5037886;28;1273;-36
2023/07/07 07:25:16;;;;;;;;;;;;;;;28.44;38.30;100362.34;5052541;28;1144;-36
2023/07/07 07:27:42;;;;;;;;;;;;;;;28.50;38.37;100366.94;5054119;28;1985;-40
2023/07/07 07:30:08;;;;;;;;;;;;;;;28.53;38.76;100376.53;5046978;28;1380;-34
2023/07/07 07:32:34;;;;;;;;;;;;;;;28.56;38.75;100384.25;5036359;28;1286;-45
2023/07/07 07:34:59;;;;;;;;;;;;;;;28.63;38.36;100379.66;5054472;28;1119;-44
2023/07/07 07:37:25;;;;;;;;;;;;;;;28.77;38.37;100387.84;5056602;28;1140;-44
2023/07/07 07:39:51;;;;;;;;;;;;;;;28.80;37.28;100382.84;5056724;28;1213;-47
2023/07/07 07:42:16;;;;;;;;;;;;;;;28.79;37.80;100393.91;5056457;28;1043;-44
2023/07/07 07:44:42;;;;;;;;;;;;;;;28.91;36.84;100389.53;5056583;28;1123;-34
2023/07/07 07:47:07;;;;;;;;;;;;;;;28.61;37.90;100384.47;5055639;28;1971;-34
2023/07/07 07:49:33;;;;;;;;;;;;;;;28.60;38.31;100380.94;5071268;28;1139;-35
2023/07/07 07:51:59;;;;;;;;;;;;;;;28.73;38.40;100390.97;5056095;28;1143;-43
2023/07/07 07:54:24;;;;;;;;;;;;;;;28.66;39.23;100391.97;5056332;28;1083;-43
2023/07/07 07:56:50;;;;;;;;;;;;;;;28.85;38.87;100391.22;5052189;28;1304;-44
2023/07/07 07:59:16;;;;;;;;;;;;;;;28.86;39.00;100394.75;5055368;28;1116;-43
2023/07/07 08:01:41;;;;;;;;;;;;;;;28.87;39.30;100393.72;5055405;28;1131;-43
2023/07/07 08:04:07;;;;;;;;;;;;;;;28.89;39.45;100394.34;5056232;28;1199;-44
2023/07/07 08:06:33;;;;;;;;;;;;;;;28.94;39.41;100394.56;5055980;28;1906;-43
2023/07/07 08:08:58;;;;;;;;;;;;;;;28.95;39.84;100396.22;5040862;28;1202;-41
2023/07/07 08:11:29;;;;;;;;;;;;;;;28.85;39.67;100391.22;5044480;28;1341;-43
2023/07/07 08:13:54;;;;;;;;;;;;;;;28.96;39.71;100397.88;5044471;28;1475;-46
2023/07/07 08:16:21;;;;;;;;;;;;;;;29.03;39.85;100386.28;5046522;28;1337;-42
2023/07/07 08:18:46;;;;;;;;;;;;;;;28.89;40.02;100390.78;5051979;28;1024;-42
2023/07/07 08:21:12;;;;;;;;;;;;;;;28.97;39.84;100387.94;5056591;28;1078;-41
2023/07/07 08:23:37;;;;;;;;;;;;;;;29.13;39.12;100386.72;5055995;28;1147;-43
2023/07/07 08:26:03;;;;;;;;;;;;;;;28.87;39.34;100391.00;5055394;28;1906;-43
2023/07/07 08:28:29;;;;;;;;;;;;;;;28.82;39.34;100386.22;5055340;28;1011;-44
2023/07/07 08:30:54;;;;;;;;;;;;;;;28.92;39.02;100390.38;5040135;28;1008;-44
2023/07/07 08:33:20;;;;;;;;;;;;;;;29.12;37.29;100389.63;5035999;28;1368;-44
2023/07/07 08:35:45;;;;;;;;;;;;;;;29.00;39.09;100389.38;5040437;28;1215;-44
2023/07/07 08:38:11;;;;;;;;;;;;;;;28.91;38.72;100384.13;5055202;28;1019;-42
2023/07/07 08:40:42;;;;;;;;;;;;;;;28.93;39.01;100389.34;5055126;28;1178;-42
2023/07/07 08:43:08;;;;;;;;;;;;;;;28.92;38.81;100382.25;5054568;28;1072;-43
2023/07/07 08:45:33;;;;;;;;;;;;;;;28.86;38.57;100381.22;5054252;28;1902;-43
2023/07/07 08:48:05;;;;;;;;;;;;;;;29.04;38.69;100379.81;5055626;28;1115;-44
2023/07/07 08:50:45;;;;;;;;;;;;;;;28.89;39.16;100382.69;5055523;28;1062;-42
2023/07/07 08:53:33;;;;;;;;;;;;;;;28.96;39.58;100378.94;5054785;28;1028;-43
2023/07/07 08:56:05;;;;;;;;;;;;;;;29.01;39.15;100382.94;5055674;28;1164;-43
2023/07/07 08:58:45;;;;;;;;;;;;;;;29.00;39.48;100376.69;5059090;28;1102;-43
2023/07/07 09:01:23;;;;;;;;;;;;;;;28.96;39.00;100380.84;5060346;28;1183;-42
2023/07/07 09:04:07;;;;;;;;;;;;;;;28.99;39.17;100380.44;5059394;28;1202;-42
2023/07/07 09:06:36;;;;;;;;;;;;;;;28.81;38.84;100379.09;5059228;28;1915;-41
2023/07/07 09:09:12;;;;;;;;;;;;;;;28.93;38.59;100376.66;5058296;28;1067;-41
2023/07/07 09:11:41;;;;;;;;;;;;;;;28.97;38.99;100385.22;5046546;28;1132;-43
2023/07/07 09:14:07;;;;;;;;;;;;;;;28.91;39.16;100380.59;5059727;28;1090;-41
2023/07/07 09:16:33;;;;;;;;;;;;;;;29.01;38.85;100375.63;5058599;28;1427;-43
2023/07/07 09:19:06;;;;;;;;;;;;;;;28.96;38.77;100381.66;5059632;28;1043;-43
2023/07/07 09:21:33;;;;;;;;;;;;;;;29.01;38.71;100378.34;5059536;28;1069;-42
2023/07/07 09:23:59;;;;;;;;;;;;;;;29.00;38.98;100381.25;5048013;28;1207;-42
2023/07/07 09:26:32;;;;;;;;;;;;;;;28.89;38.79;100378.09;5095437;28;1905;-43
2023/07/07 09:28:58;;;;;;;;;;;;;;;28.87;39.36;100373.91;5058088;28;1365;-42
2023/07/07 09:31:26;;;;;;;;;;;;;;;28.99;39.19;100376.91;5059575;28;1377;-42
2023/07/07 09:33:52;;;;;;;;;;;;;;;28.94;39.66;100375.63;5059600;28;1430;-43
2023/07/07 09:36:23;;;;;;;;;;;;;;;29.03;39.74;100367.34;5074633;28;1333;-42
2023/07/07 09:38:55;;;;;;;;;;;;;;;28.96;39.94;100370.81;5047753;28;1290;-44
2023/07/07 09:41:39;;;;;;;;;;;;;;;28.98;40.17;100369.81;5074609;28;1396;-43
2023/07/07 09:44:11;;;;;;;;;;;;;;;28.92;40.37;100361.44;5059440;28;1305;-42
2023/07/07 09:46:46;;;;;;;;;;;;;;;28.98;39.92;100365.22;5058971;28;1902;-42
2023/07/07 09:49:24;;;;;;;;;;;;;;;29.07;39.99;100371.28;5055074;28;1357;-42
2023/07/07 09:51:51;;;;;;;;;;;;;;;29.07;40.21;100369.44;5058391;28;1340;-43
2023/07/07 09:54:16;;;;;;;;;;;;;;;29.08;39.97;100367.53;5061170;28;1352;-43
2023/07/07 09:57:02;;;;;;;;;;;;;;;29.03;39.93;100372.75;5057984;28;1321;-43
2023/07/07 09:59:29;;;;;;;;;;;;;;;29.00;40.48;100365.00;5058944;28;1052;-42
2023/07/07 10:01:55;;;;;;;;;;;;;;;29.16;39.74;100370.03;5059002;28;1048;-42
2023/07/07 10:04:21;;;;;;;;;;;;;;;29.07;39.50;100374.84;5058958;28;886;-43
2023/07/07 10:06:53;;;;;;;;;;;;;;;29.27;39.00;100362.34;5058210;28;1980;-42
2023/07/07 10:09:19;;;;;;;;;;;;;;;29.16;39.66;100375.47;5057282;28;1047;-42
2023/07/07 10:11:45;;;;;;;;;;;;;;;29.24;39.55;100360.06;5058427;28;1217;-42
2023/07/07 10:14:11;;;;;;;;;;;;;;;29.08;39.68;100360.25;5058504;28;1151;-43
2023/07/07 10:16:48;;;;;;;;;;;;;;;29.00;40.09;100367.72;5057960;28;1046;-43
2023/07/07 10:19:14;;;;;;;;;;;;;;;29.04;39.86;100369.84;5058706;28;1058;-42
2023/07/07 10:21:40;;;;;;;;;;;;;;;29.05;40.12;100359.81;5057896;28;1177;-44
2023/07/07 10:24:05;;;;;;;;;;;;;;;29.00;39.94;100368.56;5058622;28;1103;-43
2023/07/07 10:26:31;;;;;;;;;;;;;;;29.14;39.40;100377.56;5057899;28;1975;-42
2023/07/07 10:28:58;;;;;;;;;;;;;;;29.07;40.09;100360.47;5057440;28;861;-42
2023/07/07 10:31:24;;;;;;;;;;;;;;;29.01;40.14;100369.41;5059819;28;1314;-43
2023/07/07 10:33:50;;;;;;;;;;;;;;;29.02;40.37;100360.22;5058013;28;1051;-44
2023/07/07 10:36:16;;;;;;;;;;;;;;;29.24;39.83;100355.47;5056955;28;1135;-41
2023/07/07 10:38:42;;;;;;;;;;;;;;;29.17;39.66;100347.34;5058225;28;1035;-43
2023/07/07 10:41:08;;;;;;;;;;;;;;;29.04;40.15;100339.22;5057486;28;1024;-42
2023/07/07 10:43:46;;;;;;;;;;;;;;;29.18;39.91;100350.88;5057788;28;1051;-42
2023/07/07 10:46:11;;;;;;;;;;;;;;;29.18;39.84;100342.75;5045955;28;1894;-44
2023/07/07 10:48:39;;;;;;;;;;;;;;;29.30;40.38;100332.13;5057482;28;1064;-43
2023/07/07 10:51:23;;;;;;;;;;;;;;;29.41;39.29;100336.09;5057389;28;1000;-43
2023/07/07 10:53:59;;;;;;;;;;;;;;;29.25;40.08;100326.50;5056707;28;1107;-43
2023/07/07 10:56:24;;;;;;;;;;;;;;;29.32;40.30;100333.59;5072746;28;1044;-44
2023/07/07 10:58:50;;;;;;;;;;;;;;;29.27;40.27;100327.13;5056681;28;1047;-44
2023/07/07 11:01:35;;;;;;;;;;;;;;;29.15;40.70;100330.47;5051681;28;1167;-46
2023/07/07 11:04:04;;;;;;;;;;;;;;;29.08;40.84;100321.50;5044566;28;1164;-43
2023/07/07 11:06:48;;;;;;;;;;;;;;;29.41;39.69;100317.97;5057375;28;1902;-38
2023/07/07 11:09:13;;;;;;;;;;;;;;;29.52;38.61;100318.38;5045596;28;1031;-37
2023/07/07 11:11:45;;;;;;;;;;;;;;;29.58;38.96;100314.81;5043268;28;1042;-39
2023/07/07 11:14:17;;;;;;;;;;;;;;;29.56;38.30;100315.03;5037029;28;1396;-47
2023/07/07 11:17:01;;;;;;;;;;;;;;;29.46;39.92;100304.63;5054290;28;1032;-39
2023/07/07 11:19:33;;;;;;;;;;;;;;;29.58;37.24;100304.81;5036568;28;1262;-32
2023/07/07 11:22:02;;;;;;;;;;;;;;;29.45;39.26;100300.25;5036907;28;1318;-34
2023/07/07 11:24:27;;;;;;;;;;;;;;;29.40;39.05;100296.50;5036296;28;1332;-39
2023/07/07 11:27:08;;;;;;;;;;;;;;;29.53;39.23;100292.97;5036634;28;1910;-36
2023/07/07 11:29:39;;;;;;;;;;;;;;;29.53;38.24;100285.63;5036638;28;1337;-39
2023/07/07 11:32:05;;;;;;;;;;;;;;;29.25;39.07;100286.72;5054202;28;1368;-45
2023/07/07 11:34:31;;;;;;;;;;;;;;;29.36;38.26;100289.84;5057470;28;785;-40
2023/07/07 11:36:59;;;;;;;;;;;;;;;29.53;38.63;100285.63;5056904;28;1348;-36
2023/07/07 11:39:25;;;;;;;;;;;;;;;29.51;38.33;100285.00;5072186;28;1274;-43
2023/07/07 11:41:51;;;;;;;;;;;;;;;29.64;38.31;100277.94;5057003;28;1348;-38
2023/07/07 11:44:22;;;;;;;;;;;;;;;29.53;38.24;100274.00;5057515;28;1305;-38
2023/07/07 11:46:52;;;;;;;;;;;;;;;29.43;38.03;100277.09;5057039;28;1933;-46
2023/07/07 11:49:18;;;;;;;;;;;;;;;29.82;36.52;100264.56;5072026;28;1317;-37
2023/07/07 11:52:03;;;;;;;;;;;;;;;29.83;36.46;100268.09;5055928;28;1328;-41
2023/07/07 11:54:28;;;;;;;;;;;;;;;29.75;36.48;100263.72;5056820;28;1305;-36
2023/07/07 11:57:06;;;;;;;;;;;;;;;29.85;37.06;100257.03;5056327;28;1297;-35
2023/07/07 11:59:45;;;;;;;;;;;;;;;29.84;36.38;100258.91;5056712;28;1352;-44
2023/07/07 12:02:16;;;;;;;;;;;;;;;29.26;39.21;100261.28;5056493;28;1086;-35
2023/07/07 12:04:43;;;;;;;;;;;;;;;29.43;36.90;100253.56;5055389;28;1047;-34
2023/07/07 12:07:18;;;;;;;;;;;;;;;29.56;37.70;100241.03;5053561;28;1902;-41
2023/07/07 12:09:45;;;;;;;;;;;;;;;29.55;37.58;100245.63;5071976;28;1079;-36
2023/07/07 12:12:12;;;;;;;;;;;;;;;29.70;38.22;100250.81;5042875;28;1232;-37
2023/07/07 12:14:42;;;;;;;;;;;;;;;29.73;37.53;100252.25;5055807;28;1024;-45
2023/07/07 12:17:09;;;;;;;;;;;;;;;29.85;38.40;100240.75;5049241;28;989;-47
2023/07/07 12:19:37;;;;;;;;;;;;;;;29.71;37.23;100248.97;5041613;28;1560;-43
2023/07/07 12:22:03;;;;;;;;;;;;;;;29.78;37.32;100230.78;5043757;28;1274;-43
2023/07/07 12:24:48;;;;;;;;;;;;;;;29.88;36.36;100240.34;5054852;28;1123;-43
2023/07/07 12:27:43;;;;;;;;;;;;;;;29.71;36.89;100229.97;5055097;28;1914;-43
2023/07/07 12:30:18;;;;;;;;;;;;;;;29.56;37.75;100222.06;5051359;28;1338;-43
2023/07/07 12:32:43;;;;;;;;;;;;;;;29.72;36.90;100231.63;5055932;28;1130;-44
2023/07/07 12:35:14;;;;;;;;;;;;;;;29.67;37.38;100221.44;5054809;28;1134;-43
2023/07/07 12:37:39;;;;;;;;;;;;;;;30.28;35.00;100233.94;5055193;28;1007;-46
2023/07/07 12:40:12;;;;;;;;;;;;;;;30.49;35.03;100227.34;5054363;28;1136;-44
2023/07/07 12:42:38;;;;;;;;;;;;;;;30.76;33.97;100231.75;5055466;28;1182;-41
2023/07/07 12:45:17;;;;;;;;;;;;;;;30.98;33.50;100225.97;5047607;28;1079;-39
2023/07/07 12:47:45;;;;;;;;;;;;;;;31.11;33.48;100216.84;5082935;28;1914;-36
2023/07/07 12:50:29;;;;;;;;;;;;;;;31.05;33.75;100229.44;5056107;28;1123;-35